Latest Weather Observations for PORTABLE RFSNSW20

IDN60801

Issued at 3:12 am EST Monday 6 July 2020 (issued every 10 minutes, with the page automatically refreshed every 10 minutes)

About weather observations | Map of weather stations | Latest weather observations for NSW | Other Formats
Station Details ID: 250085 Name: PORTABLE RFSNSW20 Lat: -31.04 Lon: 149.37 Height: 583.0 m

Portable automatic weather stations (PAWS) are operated by other organisations, such as Fire and Emergency Services, and are included here by agreement. Portable stations may be deployed to a location for a short period and their location may be subject to change without notice. Wind observations from these stations are provided from heights of either three (3) or ten (10) metres above ground level (AGL).

Data from the previous 72 hours. | See also: Recent months for locations in New South Wales
Date/Time
EST
Temp
°C
App
Temp
°C
Dew
Point
°C
Rel
Hum
%
Delta-T
°C
Wind Press
QNH
hPa
Press
MSL
hPa
Rain since
9am
mm
Dir  Spd
km/h
Gust
km/h
Spd
kts
Gust
kts
06/03:00am 5.5 0.8 3.1 84 1.0 S 17 19 9 10 - - 0.0
06/02:50am 5.5 0.8 3.2 85 1.0 S 17 17 9 9 - - 0.0
06/02:40am 5.5 0.8 3.2 85 1.0 S 17 19 9 10 - - 0.0
06/02:30am 5.7 1.0 3.3 84 1.0 S 17 17 9 9 - - 0.0
06/02:20am 5.7 1.4 3.5 86 1.0 S 15 15 8 8 - - 0.0
06/02:10am 5.9 1.7 3.6 85 1.0 S 15 15 8 8 - - 0.0
06/02:00am 6.0 1.8 3.6 84 1.0 S 15 17 8 9 - - 0.0
06/01:50am 6.0 1.8 3.7 85 1.0 S 15 15 8 8 - - 0.0
06/01:40am 6.0 2.2 3.7 85 1.0 S 13 13 7 7 - - 0.0
06/01:30am 6.1 2.2 3.6 84 1.1 S 13 13 7 7 - - 0.0
06/01:20am 6.2 2.3 3.6 83 1.1 S 13 13 7 7 - - 0.0
06/01:10am 6.1 2.2 3.6 84 1.1 S 13 13 7 7 - - 0.0
06/01:00am 6.2 2.3 3.5 83 1.2 S 13 13 7 7 - - 0.0
06/12:50am 6.3 2.8 3.5 82 1.2 S 11 13 6 7 - - 0.0
06/12:40am 6.4 2.5 3.5 82 1.3 S 13 13 7 7 - - 0.0
06/12:30am 6.6 3.1 3.4 80 1.4 S 11 13 6 7 - - 0.0
06/12:20am 6.6 3.1 3.3 79 1.4 S 11 11 6 6 - - 0.0
06/12:10am 6.7 3.2 3.3 79 1.5 S 11 11 6 6 - - 0.0
06/12:00am 6.6 3.0 3.2 79 1.5 S 11 11 6 6 - - 0.0
 
Date/Time
EST
Temp
°C
App
Temp
°C
Dew
Point
°C
Rel
Hum
%
Delta-T
°C
Wind Press
QNH
hPa
Press
MSL
hPa
Rain since
9am
mm
Dir  Spd
km/h
Gust
km/h
Spd
kts
Gust
kts
05/11:50pm 6.6 3.0 3.1 78 1.5 S 11 11 6 6 - - 0.0
05/11:40pm 6.7 3.1 3.1 78 1.6 S 11 11 6 6 - - 0.0
05/11:30pm 6.7 3.5 3.1 78 1.6 SSW 9 11 5 6 - - 0.0
05/11:20pm 6.6 3.4 3.1 78 1.5 S 9 11 5 6 - - 0.0
05/11:10pm 6.5 2.9 3.0 78 1.5 S 11 11 6 6 - - 0.0
05/11:00pm 6.6 3.0 3.0 78 1.6 S 11 13 6 7 - - 0.0
05/10:50pm 6.5 2.9 3.0 78 1.5 S 11 11 6 6 - - 0.0
05/10:40pm 6.5 2.9 3.0 78 1.5 S 11 11 6 6 - - 0.0
05/10:30pm 6.6 3.4 3.0 78 1.6 SSW 9 11 5 6 - - 0.0
05/10:20pm 6.6 3.9 2.9 77 1.6 SSW 6 9 3 5 - - 0.0
05/10:10pm 6.7 3.9 3.0 77 1.6 SSW 7 9 4 5 - - 0.0
05/10:00pm 6.7 3.9 2.9 77 1.6 SSW 7 7 4 4 - - 0.0
05/09:50pm 6.6 3.4 2.9 77 1.6 SSW 9 9 5 5 - - 0.0
05/09:40pm 6.7 3.1 2.9 77 1.6 S 11 13 6 7 - - 0.0
05/09:30pm 6.7 3.5 3.0 77 1.6 S 9 11 5 6 - - 0.0
05/09:20pm 6.8 3.2 3.0 77 1.6 S 11 13 6 7 - - 0.0
05/09:10pm 6.8 3.2 2.9 76 1.7 S 11 11 6 6 - - 0.0
05/09:00pm 6.8 3.6 3.0 77 1.6 S 9 11 5 6 - - 0.0
05/08:50pm 6.9 3.7 2.9 76 1.7 S 9 11 5 6 - - 0.0
05/08:40pm 7.0 3.8 3.0 76 1.7 S 9 11 5 6 - - 0.0
05/08:30pm 6.9 4.2 2.8 75 1.8 SSW 6 7 3 4 - - 0.0
05/08:20pm 6.8 3.9 2.8 75 1.7 S 7 7 4 4 - - 0.0
05/08:10pm 6.7 3.8 2.8 76 1.7 S 7 9 4 5 - - 0.0
05/08:00pm 6.7 3.1 2.9 77 1.6 S 11 11 6 6 - - 0.0
05/07:50pm 6.9 3.3 2.9 76 1.7 S 11 11 6 6 - - 0.0
05/07:40pm 7.0 3.4 2.8 74 1.8 S 11 11 6 6 - - 0.0
05/07:30pm 7.0 3.4 2.9 75 1.8 S 11 13 6 7 - - 0.0
05/07:20pm 7.1 3.5 2.9 74 1.8 S 11 13 6 7 - - 0.0
05/07:10pm 7.2 3.6 2.9 74 1.9 S 11 11 6 6 - - 0.0
05/07:00pm 7.4 3.8 2.8 72 2.0 S 11 13 6 7 - - 0.0
05/06:50pm 7.6 3.6 2.8 71 2.1 S 13 13 7 7 - - 0.0
05/06:40pm 7.6 3.6 2.9 72 2.0 S 13 15 7 8 - - 0.0
05/06:30pm 7.8 3.8 3.1 72 2.1 S 13 13 7 7 - - 0.0
05/06:20pm 8.2 5.1 3.5 72 2.1 S 9 11 5 6 - - 0.0
05/06:10pm 8.3 4.4 3.6 72 2.1 S 13 17 7 9 - - 0.0
05/06:00pm 8.6 4.8 3.7 71 2.2 S 13 17 7 9 - - 0.0
05/05:50pm 8.7 5.4 4.3 74 2.0 S 11 15 6 8 - - 0.0
05/05:40pm 8.7 5.7 4.3 74 2.0 S 9 13 5 7 - - 0.0
05/05:30pm 8.7 5.6 3.4 69 2.4 S 9 13 5 7 - - 0.0
05/05:20pm 8.8 5.7 3.4 69 2.4 S 9 11 5 6 - - 0.0
05/05:10pm 9.2 6.5 3.6 68 2.5 SSW 7 11 4 6 - - 0.0
05/05:00pm 9.3 5.4 3.5 67 2.6 S 13 15 7 8 - - 0.0
05/04:50pm 9.4 5.1 3.4 66 2.7 S 15 17 8 9 - - 0.0
05/04:40pm 9.5 4.8 3.3 65 2.8 S 17 19 9 10 - - 0.0
05/04:30pm 9.7 5.8 3.3 64 2.9 S 13 17 7 9 - - 0.0
05/04:20pm 9.9 5.2 3.4 64 2.9 S 17 22 9 12 - - 0.0
05/04:10pm 10.2 6.3 3.5 63 3.0 S 13 17 7 9 - - 0.0
05/04:00pm 10.1 6.6 3.6 64 2.9 S 11 15 6 8 - - 0.0
05/03:50pm 10.0 6.2 3.7 65 2.9 S 13 17 7 9 - - 0.0
05/03:40pm 10.2 5.6 3.5 63 3.0 S 17 20 9 11 - - 0.0
05/03:30pm 10.6 6.4 3.8 63 3.1 S 15 17 8 9 - - 0.0
05/03:20pm 10.5 6.3 3.9 63 3.0 S 15 17 8 9 - - 0.0
05/03:10pm 10.8 7.0 4.1 63 3.1 S 13 19 7 10 - - 0.0
05/03:00pm 11.3 8.4 4.6 63 3.1 S 9 15 5 8 - - 0.0
05/02:50pm 11.2 7.9 4.5 63 3.1 S 11 13 6 7 - - 0.0
05/02:40pm 11.1 7.8 4.8 65 3.0 S 11 17 6 9 - - 0.0
05/02:30pm 11.2 7.6 4.8 64 3.0 S 13 15 7 8 - - 0.0
05/02:20pm 11.5 8.3 5.0 64 3.1 S 11 13 6 7 - - 0.0
05/02:10pm 11.9 9.1 5.3 64 3.2 S 9 13 5 7 - - 0.0
05/02:00pm 12.4 10.0 5.1 61 3.5 SSW 7 7 4 4 - - 0.0
05/01:50pm 12.3 9.9 5.1 61 3.4 SW 7 11 4 6 - - 0.0
05/01:40pm 11.7 8.9 5.1 64 3.1 S 9 11 5 6 - - 0.0
05/01:30pm 11.8 8.6 5.0 63 3.2 S 11 13 6 7 - - 0.0
05/01:20pm 12.1 9.6 4.9 61 3.4 SSW 7 11 4 6 - - 0.0
05/01:10pm 12.0 9.2 5.1 62 3.3 S 9 13 5 7 - - 0.0
05/01:00pm 12.2 9.4 5.0 61 3.4 SSW 9 11 5 6 - - 0.0
05/12:50pm 12.7 9.9 5.0 59 3.7 SW 9 11 5 6 - - 0.0
05/12:40pm 11.8 9.3 5.0 63 3.2 SW 7 11 4 6 - - 0.0
05/12:30pm 11.8 9.3 5.0 63 3.2 S 7 11 4 6 - - 0.0
05/12:20pm 10.9 7.2 4.5 64 3.0 S 13 15 7 8 - - 0.0
05/12:10pm 10.6 7.8 5.0 68 2.6 SSW 9 13 5 7 - - 0.0
05/12:00pm 10.1 7.2 4.8 69 2.5 S 9 13 5 7 - - 0.0
05/11:50am 10.1 7.7 5.3 72 2.3 S 7 11 4 6 - - 0.0
05/11:40am 10.2 7.3 4.8 69 2.5 S 9 13 5 7 - - 0.0
05/11:30am 9.8 6.6 5.0 72 2.2 S 11 15 6 8 - - 0.0
05/11:20am 10.5 6.9 5.0 69 2.6 S 13 15 7 8 - - 0.0
05/11:10am 10.1 6.5 4.8 69 2.5 S 13 15 7 8 - - 0.0
05/11:00am 10.4 6.7 4.7 68 2.7 S 13 17 7 9 - - 0.0
05/10:50am 9.8 6.2 4.9 71 2.3 S 13 15 7 8 - - 0.0
05/10:40am 9.2 5.1 4.5 72 2.2 S 15 17 8 9 - - 0.0
05/10:30am 9.9 6.6 4.8 70 2.4 S 11 17 6 9 - - 0.0
05/10:20am 9.6 5.5 4.3 69 2.4 SSE 15 19 8 10 - - 0.0
05/10:10am 8.8 4.3 4.0 72 2.2 S 17 22 9 12 - - 0.0
05/10:00am 8.9 4.7 4.0 71 2.2 S 15 20 8 11 - - 0.0
05/09:50am 9.0 4.9 4.5 73 2.1 S 15 20 8 11 - - 0.0
05/09:40am 8.4 3.5 3.9 73 2.0 SSE 19 22 10 12 - - 0.0
05/09:30am 8.3 3.2 4.0 74 1.9 S 20 26 11 14 - - 0.0
05/09:20am 8.3 3.3 3.8 73 2.0 S 19 26 10 14 - - 0.0
05/09:10am 7.8 3.2 3.7 75 1.8 SSE 17 20 9 11 - - 0.0
05/09:00am 7.6 2.6 3.4 75 1.9 SSE 19 28 10 15 - - 0.0
05/08:50am 7.6 3.4 3.8 77 1.7 S 15 20 8 11 - - 0.0
05/08:40am 7.3 3.4 3.4 76 1.7 SSE 13 15 7 8 - - 0.0
05/08:30am 6.7 2.4 3.5 80 1.4 SSE 15 19 8 10 - - 0.0
05/08:20am 6.5 1.8 3.4 80 1.4 S 17 22 9 12 - - 0.0
05/08:10am 6.4 1.1 3.2 80 1.4 S 20 24 11 13 - - 0.0
05/08:00am 6.3 2.0 3.2 80 1.3 SSE 15 22 8 12 - - 0.0
05/07:50am 6.2 1.9 3.0 80 1.4 S 15 19 8 10 - - 0.0
05/07:40am 6.1 1.4 3.2 82 1.3 S 17 20 9 11 - - 0.0
05/07:30am 6.1 1.0 3.1 81 1.3 S 19 22 10 12 - - 0.0
05/07:20am 6.1 1.4 3.2 82 1.3 S 17 22 9 12 - - 0.0
05/07:10am 6.0 0.7 3.0 81 1.3 S 20 26 11 14 - - 0.0
05/07:00am 5.9 1.2 3.4 84 1.1 S 17 22 9 12 - - 0.0
05/06:50am 5.9 0.7 3.4 84 1.1 S 20 24 11 13 - - 0.0
05/06:40am 6.0 2.1 3.4 83 1.1 S 13 17 7 9 - - 0.0
05/06:30am 6.0 1.7 3.5 84 1.1 S 15 22 8 12 - - 0.0
05/06:20am 6.0 1.3 3.4 83 1.1 S 17 19 9 10 - - 0.0
05/06:10am 6.0 1.7 3.4 83 1.1 S 15 20 8 11 - - 0.0
05/06:00am 6.0 1.3 3.4 83 1.1 S 17 24 9 13 - - 0.0
05/05:50am 6.0 1.3 3.4 83 1.1 S 17 20 9 11 - - 0.0
05/05:40am 6.0 1.3 3.3 83 1.2 S 17 22 9 12 - - 0.0
05/05:30am 6.0 1.3 3.3 83 1.2 S 17 22 9 12 - - 0.0
05/05:20am 5.9 1.2 3.2 83 1.2 S 17 22 9 12 - - 0.0
05/05:10am 5.9 1.6 3.3 83 1.1 S 15 19 8 10 - - 0.0
05/05:00am 5.8 1.5 3.3 84 1.1 SSW 15 19 8 10 - - 0.0
05/04:50am 5.8 1.5 3.5 85 1.0 S 15 19 8 10 - - 0.0
05/04:40am 5.9 1.3 3.5 84 1.0 S 17 20 9 11 - - 0.0
05/04:30am 5.9 1.6 3.5 84 1.0 SSW 15 22 8 12 - - 0.0
05/04:20am 5.9 1.6 3.5 84 1.0 S 15 26 8 14 - - 0.0
05/04:10am 6.0 1.8 3.7 85 1.0 S 15 20 8 11 - - 0.0
05/04:00am 6.1 2.2 3.6 84 1.1 S 13 15 7 8 - - 0.0
05/03:50am 6.1 2.3 3.7 84 1.1 S 13 19 7 10 - - 0.0
05/03:40am 6.1 1.8 3.5 83 1.1 S 15 22 8 12 - - 0.0
05/03:30am 6.1 1.8 3.3 82 1.2 S 15 19 8 10 - - 0.0
05/03:20am 6.0 1.3 3.1 82 1.3 S 17 24 9 13 - - 0.0
05/03:10am 5.7 1.7 2.8 81 1.2 S 13 15 7 8 - - 0.0
05/03:00am 5.6 1.6 2.7 81 1.2 S 13 19 7 10 - - 0.0
05/02:50am 5.3 0.9 2.6 83 1.1 S 15 24 8 13 - - 0.0
05/02:40am 5.2 0.8 2.5 83 1.1 S 15 19 8 10 - - 0.0
05/02:30am 5.0 0.9 2.3 83 1.1 S 13 17 7 9 - - 0.0
05/02:20am 5.0 0.5 2.3 83 1.1 S 15 17 8 9 - - 0.0
05/02:10am 4.9 0.0 2.3 83 1.1 S 17 20 9 11 - - 0.0
05/02:00am 4.9 0.0 2.2 83 1.1 S 17 19 9 10 - - 0.0
05/01:50am 4.7 0.6 2.1 83 1.1 S 13 15 7 8 - - 0.0
05/01:40am 4.7 0.6 2.1 83 1.1 S 13 17 7 9 - - 0.0
05/01:30am 4.6 0.9 2.1 84 1.0 S 11 15 6 8 - - 0.0
05/01:20am 4.7 0.9 2.0 83 1.1 S 11 13 6 7 - - 0.0
05/01:10am 4.8 0.7 2.0 82 1.2 S 13 19 7 10 - - 0.0
05/01:00am 4.9 0.0 2.1 82 1.2 S 17 22 9 12 - - 0.0
05/12:50am 4.9 0.0 1.9 81 1.2 S 17 22 9 12 - - 0.0
05/12:40am 4.8 0.3 2.0 82 1.2 S 15 22 8 12 - - 0.0
05/12:30am 4.7 0.2 1.9 82 1.2 S 15 20 8 11 - - 0.0
05/12:20am 4.7 0.1 1.7 81 1.2 S 15 20 8 11 - - 0.0
05/12:00am 4.8 -0.2 1.6 80 1.3 S 17 24 9 13 - - 0.0
 
Date/Time
EST
Temp
°C
App
Temp
°C
Dew
Point
°C
Rel
Hum
%
Delta-T
°C
Wind Press
QNH
hPa
Press
MSL
hPa
Rain since
9am
mm
Dir  Spd
km/h
Gust
km/h
Spd
kts
Gust
kts
04/11:50pm 4.7 -0.3 1.5 80 1.3 S 17 24 9 13 - - 0.0
04/11:40pm 4.7 -0.7 1.4 79 1.3 S 19 22 10 12 - - 0.0
04/11:30pm 4.5 -0.1 1.5 81 1.2 S 15 19 8 10 - - 0.0
04/11:20pm 4.5 -0.1 1.5 81 1.2 S 15 19 8 10 - - 0.0
04/11:10pm 4.4 -0.2 1.4 81 1.2 S 15 19 8 10 - - 0.0
04/11:00pm 4.3 -0.7 1.5 82 1.1 S 17 20 9 11 - - 0.0
04/10:50pm 4.3 -0.7 1.5 82 1.1 S 17 19 9 10 - - 0.0
04/10:40pm 4.3 -1.1 1.5 82 1.1 S 19 20 10 11 - - 0.0
04/10:30pm 4.3 -1.0 1.6 82 1.1 S 19 22 10 12 - - 0.0
04/10:20pm 4.4 -1.0 1.5 81 1.2 S 19 20 10 11 - - 0.0
04/10:10pm 4.3 -1.6 1.5 82 1.1 S 22 24 12 13 - - 0.0
04/10:00pm 4.2 -1.4 1.4 82 1.1 S 20 24 11 13 - - 0.0
04/09:50pm 4.2 -1.2 1.4 82 1.1 S 19 20 10 11 - - 0.0
04/09:40pm 4.3 -0.7 1.4 81 1.2 S 17 19 9 10 - - 0.0
04/09:30pm 4.2 -0.4 1.4 82 1.1 S 15 17 8 9 - - 0.0
04/09:20pm 4.3 -0.3 1.3 81 1.2 SSW 15 17 8 9 - - 0.0
04/09:10pm 4.3 0.1 1.4 81 1.2 S 13 17 7 9 - - 0.0
04/09:00pm 4.5 0.2 1.3 80 1.3 SSW 13 17 7 9 - - 0.0
04/08:50pm 4.5 -0.2 1.2 79 1.3 SSW 15 17 8 9 - - 0.0
04/08:40pm 4.5 -0.2 1.2 79 1.3 SSW 15 19 8 10 - - 0.0
04/08:30pm 4.4 0.1 1.2 80 1.3 SSW 13 17 7 9 - - 0.0
04/08:20pm 4.5 0.2 1.2 79 1.3 SSW 13 15 7 8 - - 0.0
04/08:10pm 4.6 0.3 1.2 78 1.4 SSW 13 15 7 8 - - 0.0
04/08:00pm 4.6 -0.4 1.2 78 1.4 S 17 19 9 10 - - 0.0
04/07:50pm 4.7 -0.3 1.1 77 1.5 SSW 17 19 9 10 - - 0.0
04/07:40pm 4.8 0.1 1.0 76 1.5 SSW 15 19 8 10 - - 0.0
04/07:30pm 4.9 -0.2 1.0 76 1.6 S 17 19 9 10 - - 0.0
04/07:20pm 4.9 0.2 0.9 75 1.6 SSW 15 19 8 10 - - 0.0
04/07:10pm 5.1 0.0 0.9 74 1.7 SSW 17 22 9 12 - - 0.0
04/07:00pm 5.2 0.5 0.6 72 1.9 SSW 15 17 8 9 - - 0.0
04/06:50pm 5.4 0.6 0.4 70 2.0 S 15 17 8 9 - - 0.0
04/06:40pm 5.6 0.8 0.2 68 2.2 S 15 17 8 9 - - 0.0
04/06:30pm 5.8 1.0 0.1 67 2.3 S 15 15 8 8 - - 0.0
04/06:20pm 5.9 1.8 0.1 66 2.3 S 11 13 6 7 - - 0.0
04/06:10pm 6.0 1.9 -0.1 65 2.4 SSW 11 13 6 7 - - 0.0
04/06:00pm 6.1 2.0 -0.1 64 2.5 S 11 13 6 7 - - 0.0
04/05:50pm 6.3 2.6 -0.2 63 2.6 S 9 11 5 6 - - 0.0
04/05:40pm 6.6 3.2 -0.3 61 2.8 SSW 7 9 4 5 - - 0.0
04/05:30pm 6.8 3.6 -0.4 60 2.9 SSW 6 7 3 4 - - 0.0
04/05:20pm 7.1 3.3 -0.4 59 3.0 S 9 11 5 6 - - 0.0
04/05:10pm 7.5 3.4 -0.4 57 3.2 S 11 13 6 7 - - 0.0
04/05:00pm 7.7 3.6 -0.5 56 3.3 S 11 15 6 8 - - 0.0
04/04:50pm 8.1 3.5 -0.7 54 3.5 S 13 15 7 8 - - 0.0
04/04:40pm 8.6 4.0 -0.9 51 3.8 S 13 15 7 8 - - 0.0
04/04:30pm 9.0 5.3 0.1 53 3.7 SSW 9 11 5 6 - - 0.0
04/04:20pm 9.3 4.6 -1.6 46 4.3 SSW 13 15 7 8 - - 0.0
04/04:00pm 10.2 6.4 -0.5 47 4.4 SSW 9 13 5 7 - - 0.0
04/03:50pm 10.6 6.7 -1.2 44 4.8 SSW 9 13 5 7 - - 0.0
04/03:40pm 10.8 7.1 0.0 47 4.5 SW 9 11 5 6 - - 0.0
04/03:30pm 10.7 7.5 0.7 50 4.3 SSW 7 11 4 6 - - 0.0
04/03:20pm 11.2 8.2 1.8 52 4.1 WSW 7 9 4 5 - - 0.0
04/03:10pm 11.2 8.2 2.1 53 4.0 SW 7 11 4 6 - - 0.0
04/03:00pm 10.5 7.1 1.7 54 3.8 S 9 13 5 7 - - 0.0
04/02:50pm 10.7 7.3 2.0 55 3.8 S 9 13 5 7 - - 0.0
04/02:40pm 11.1 8.2 2.5 55 3.8 SSW 7 11 4 6 - - 0.0
04/02:30pm 11.1 8.1 2.3 54 3.9 S 7 11 4 6 - - 0.0
04/02:20pm 10.6 7.3 2.2 56 3.7 S 9 13 5 7 - - 0.0
04/02:10pm 10.6 6.8 2.0 55 3.8 S 11 13 6 7 - - 0.0
04/02:00pm 11.4 8.5 2.7 55 3.9 S 7 11 4 6 - - 0.0
04/01:50pm 11.3 8.3 2.3 54 4.0 S 7 9 4 5 - - 0.0
04/01:40pm 10.8 7.6 3.0 58 3.5 S 9 13 5 7 - - 0.0
04/01:30pm 11.1 8.3 2.9 57 3.7 S 7 11 4 6 - - 0.0
04/01:20pm 11.1 8.2 2.7 56 3.8 SSW 7 9 4 5 - - 0.0
04/01:10pm 10.7 7.9 2.9 58 3.5 S 7 11 4 6 - - 0.0
04/01:00pm 10.1 6.3 2.0 57 3.5 SSW 11 13 6 7 - - 0.0
04/12:50pm 9.9 5.8 2.1 58 3.4 S 13 15 7 8 - - 0.0
04/12:40pm 10.0 6.6 2.0 57 3.5 S 9 13 5 7 - - 0.0
04/12:30pm 9.8 6.9 2.4 60 3.3 S 7 11 4 6 - - 0.0
04/12:20pm 9.2 5.5 2.4 62 3.0 S 11 13 6 7 - - 0.0
04/12:10pm 9.1 5.3 2.0 61 3.1 S 11 15 6 8 - - 0.0
04/12:00pm 9.1 5.4 2.6 64 2.9 S 11 15 6 8 - - 0.0
04/11:50am 9.5 6.5 1.9 59 3.3 SSW 7 9 4 5 - - 0.0
04/11:40am 8.9 6.0 2.5 64 2.8 SSW 7 11 4 6 - - 0.0
04/11:30am 8.2 4.9 2.3 66 2.5 SSW 9 15 5 8 - - 0.0
04/11:20am 7.9 4.2 2.1 67 2.5 SSW 11 13 6 7 - - 0.0
04/11:10am 7.7 3.9 1.6 65 2.6 S 11 15 6 8 - - 0.0
04/11:00am 7.6 3.9 2.3 69 2.3 S 11 15 6 8 - - 0.0
04/10:50am 7.6 3.9 2.1 68 2.4 S 11 15 6 8 - - 0.0
04/10:40am 6.8 2.3 2.0 71 2.0 S 15 17 8 9 - - 0.0
04/10:30am 6.5 1.6 1.7 71 2.0 S 17 20 9 11 - - 0.0
04/10:20am 6.3 1.0 1.7 72 1.9 S 19 22 10 12 - - 0.0
04/10:10am 6.3 0.9 1.5 71 2.0 S 19 22 10 12 - - 0.0
04/10:00am 6.5 1.6 2.0 73 1.9 S 17 19 9 10 - - 0.0
04/09:50am 6.4 1.8 1.8 72 1.9 S 15 17 8 9 - - 0.0
04/09:40am 6.1 0.5 1.5 72 1.9 S 20 24 11 13 - - 0.0
04/09:30am 6.2 0.8 1.3 71 2.0 S 19 22 10 12 - - 0.0
04/09:20am 6.6 2.3 1.1 68 2.3 SSW 13 13 7 7 - - 0.0
04/09:10am 6.4 2.5 1.1 69 2.2 SSW 11 13 6 7 - - 0.0
04/09:00am 6.0 2.5 1.2 71 2.0 SSW 9 13 5 7 - - 0.0
04/08:50am 5.6 1.8 1.5 75 1.7 SW 11 13 6 7 - - 0.0
04/08:40am 5.4 1.1 1.3 75 1.7 SW 13 15 7 8 - - 0.0
04/08:30am 5.0 0.3 0.9 75 1.7 WSW 15 17 8 9 - - 0.0
04/08:20am 4.6 0.0 1.3 79 1.3 WSW 15 17 8 9 - - 0.0
04/08:10am 4.4 0.2 1.4 81 1.2 W 13 15 7 8 - - 0.0
04/08:00am 4.5 0.6 1.2 79 1.3 WSW 11 13 6 7 - - 0.0
04/07:50am 4.5 0.6 1.2 79 1.3 WSW 11 13 6 7 - - 0.0
04/07:40am 4.3 0.5 1.5 82 1.1 SW 11 13 6 7 - - 0.0
04/07:30am 4.2 0.0 1.5 82 1.1 SW 13 13 7 7 - - 0.0
04/07:20am 4.1 0.2 0.9 80 1.3 SSW 11 13 6 7 - - 0.0
04/07:10am 4.1 -0.2 1.0 80 1.2 SSW 13 15 7 8 - - 0.0
04/07:00am 3.7 -1.0 1.0 82 1.1 SSW 15 15 8 8 - - 0.0
04/06:50am 3.3 -0.5 1.8 90 0.6 S 11 13 6 7 - - 0.0
04/06:40am 3.3 -0.5 1.8 90 0.6 SSW 11 13 6 7 - - 0.0
04/06:30am 3.1 0.1 2.1 93 0.4 SSW 7 9 4 5 - - 0.0
04/06:20am 3.1 0.1 2.2 94 0.4 SSW 7 11 4 6 - - 0.0
04/06:10am 3.3 0.3 2.2 92 0.5 SW 7 11 4 6 - - 0.0
04/06:00am 3.5 -0.2 2.3 92 0.5 SW 11 13 6 7 - - 0.0
04/05:50am 3.5 -0.6 2.2 91 0.5 WSW 13 13 7 7 - - 0.0
04/05:40am 3.5 -0.6 2.1 90 0.6 W 13 13 7 7 - - 0.0
04/05:30am 3.7 -0.4 2.1 89 0.7 W 13 15 7 8 - - 0.0
04/05:20am 3.9 0.1 2.0 87 0.8 W 11 13 6 7 - - 0.0
04/05:10am 4.0 0.6 2.0 87 0.8 W 9 11 5 6 - - 0.0
04/05:00am 4.3 0.9 2.0 85 0.9 W 9 9 5 5 - - 0.0
04/04:50am 4.7 1.3 2.0 83 1.1 W 9 9 5 5 - - 0.0
04/04:40am 5.0 1.2 1.9 80 1.3 W 11 13 6 7 - - 0.0
04/04:30am 5.3 1.1 1.8 78 1.5 W 13 15 7 8 - - 0.0
04/04:20am 5.5 1.3 1.8 77 1.5 W 13 15 7 8 - - 0.0
04/04:10am 5.7 1.1 1.8 76 1.6 W 15 17 8 9 - - 0.0
04/04:00am 5.9 1.7 1.9 75 1.7 W 13 15 7 8 - - 0.0
04/03:50am 5.8 2.0 2.0 76 1.6 W 11 11 6 6 - - 0.0
04/03:40am 5.8 2.0 2.0 76 1.6 W 11 11 6 6 - - 0.0
04/03:30am 5.8 2.0 1.9 76 1.6 W 11 11 6 6 - - 0.0
04/03:20am 5.7 1.9 1.9 76 1.6 W 11 11 6 6 - - 0.0
04/03:10am 5.6 2.2 1.8 76 1.6 W 9 11 5 6 - - 0.0
04/03:00am 5.5 2.1 1.7 76 1.6 W 9 11 5 6 - - 0.0
04/02:50am 5.4 2.0 1.8 77 1.5 W 9 11 5 6 - - 0.0
04/02:40am 5.6 2.2 1.9 77 1.5 WSW 9 11 5 6 - - 0.0
04/02:30am 5.8 2.8 2.0 76 1.6 WSW 7 11 4 6 - - 0.0
04/02:20am 6.1 2.7 1.9 74 1.8 WSW 9 11 5 6 - - 0.0
04/02:10am 6.2 2.4 1.9 74 1.8 WSW 11 13 6 7 - - 0.0
04/02:00am 6.3 2.5 1.9 73 1.8 WSW 11 13 6 7 - - 0.0
04/01:50am 6.3 2.6 2.1 74 1.8 WSW 11 11 6 6 - - 0.0
04/01:40am 6.4 2.7 2.1 74 1.8 WSW 11 13 6 7 - - 0.0
04/01:30am 6.5 2.8 2.1 73 1.9 WSW 11 11 6 6 - - 0.0
04/01:20am 6.6 2.9 2.1 73 1.9 WSW 11 11 6 6 - - 0.0
04/01:10am 6.6 2.9 2.1 73 1.9 WSW 11 13 6 7 - - 0.0
04/01:00am 6.8 2.7 2.2 72 2.0 WSW 13 15 7 8 - - 0.0
04/12:50am 6.7 2.6 2.1 72 2.0 WSW 13 13 7 7 - - 0.0
04/12:40am 6.6 2.5 2.1 73 1.9 WSW 13 13 7 7 - - 0.0
04/12:30am 6.6 2.9 2.2 73 1.9 WSW 11 13 6 7 - - 0.0
04/12:20am 6.8 3.1 2.3 73 1.9 WSW 11 11 6 6 - - 0.0
04/12:10am 6.8 3.8 2.2 72 2.0 WSW 7 9 4 5 - - 0.0
04/12:00am 7.0 3.7 2.2 71 2.0 WSW 9 11 5 6 - - 0.0
 
Date/Time
EST
Temp
°C
App
Temp
°C
Dew
Point
°C
Rel
Hum
%
Delta-T
°C
Wind Press
QNH
hPa
Press
MSL
hPa
Rain since
9am
mm
Dir  Spd
km/h
Gust
km/h
Spd
kts
Gust
kts
03/11:50pm 7.2 3.5 2.2 70 2.1 WSW 11 13 6 7 - - 0.0
03/11:40pm 7.2 3.1 2.1 70 2.2 SW 13 13 7 7 - - 0.0
03/11:30pm 7.3 3.2 2.1 69 2.2 SW 13 13 7 7 - - 0.0
03/11:20pm 7.2 3.4 1.9 69 2.2 SW 11 13 6 7 - - 0.0
03/11:00pm 7.4 3.6 1.9 68 2.3 SW 11 11 6 6 - - 0.0
03/10:50pm 7.4 3.6 1.8 67 2.4 SW 11 11 6 6 - - 0.0
03/10:40pm 7.7 3.9 1.8 66 2.5 SW 11 13 6 7 - - 0.0
03/10:30pm 7.9 3.7 1.7 65 2.6 SW 13 13 7 7 - - 0.0
03/10:20pm 7.9 4.1 1.6 64 2.7 SW 11 11 6 6 - - 0.0
03/10:10pm 7.7 4.2 1.5 65 2.6 SW 9 11 5 6 - - 0.0
03/10:00pm 7.9 4.4 1.5 64 2.7 SW 9 11 5 6 - - 0.0
03/09:50pm 7.7 3.8 1.4 64 2.7 SW 11 11 6 6 - - 0.0
03/09:40pm 7.5 3.6 1.4 65 2.6 SW 11 11 6 6 - - 0.0
03/09:30pm 7.5 3.3 1.5 66 2.5 SW 13 13 7 7 - - 0.0
03/09:20pm 7.3 3.5 1.5 66 2.4 SW 11 13 6 7 - - 0.0
03/09:10pm 7.3 3.5 1.7 67 2.4 SW 11 11 6 6 - - 0.0
03/09:00pm 7.4 3.6 1.8 67 2.4 SW 11 11 6 6 - - 0.0
03/08:50pm 7.5 4.1 1.9 67 2.4 WSW 9 11 5 6 - - 0.0
03/08:40pm 7.7 3.5 1.9 67 2.5 SW 13 13 7 7 - - 0.0
03/08:30pm 7.7 3.5 1.9 67 2.5 SW 13 13 7 7 - - 0.0
03/08:20pm 7.9 3.7 1.8 65 2.6 SW 13 15 7 8 - - 0.0
03/08:10pm 8.2 3.6 1.8 64 2.7 SW 15 17 8 9 - - 0.0
03/08:00pm 8.2 3.6 1.7 63 2.8 SW 15 17 8 9 - - 0.0
03/07:50pm 8.2 3.7 1.9 64 2.7 SW 15 15 8 8 - - 0.0
03/07:40pm 8.3 3.8 2.0 64 2.7 SW 15 17 8 9 - - 0.0
03/07:30pm 8.3 4.1 1.8 63 2.8 SW 13 17 7 9 - - 0.0
03/07:20pm 8.5 4.4 2.0 63 2.8 SW 13 15 7 8 - - 0.0
03/07:10pm 8.6 4.1 2.0 63 2.8 SW 15 17 8 9 - - 0.0
03/07:00pm 8.6 4.5 2.1 63 2.8 SW 13 15 7 8 - - 0.0
03/06:50pm 8.6 4.8 2.0 63 2.8 SW 11 13 6 7 - - 0.0
03/06:40pm 8.7 5.0 2.1 63 2.9 SW 11 13 6 7 - - 0.0
03/06:30pm 9.0 5.3 2.1 62 3.0 SW 11 13 6 7 - - 0.0
03/06:20pm 9.1 5.0 2.0 61 3.1 SW 13 15 7 8 - - 0.0
03/06:10pm 9.2 5.1 2.1 61 3.1 SW 13 15 7 8 - - 0.0
03/06:00pm 9.3 5.2 2.3 61 3.1 SW 13 13 7 7 - - 0.0
03/05:50pm 9.5 5.8 2.2 60 3.2 SW 11 13 6 7 - - 0.0
03/05:40pm 9.7 6.0 2.2 59 3.3 SW 11 13 6 7 - - 0.0
03/05:30pm 10.0 6.3 2.1 58 3.5 SW 11 11 6 6 - - 0.0
03/05:20pm 10.4 6.3 2.0 56 3.7 SW 13 17 7 9 - - 0.0
03/05:10pm 10.7 6.6 2.1 55 3.8 WSW 13 15 7 8 - - 0.0
03/05:00pm 11.1 6.5 1.8 52 4.1 SW 15 19 8 10 - - 0.0
03/04:50pm 11.5 6.9 1.8 51 4.3 WSW 15 17 8 9 - - 0.0
03/04:40pm 11.9 7.8 2.0 50 4.4 WSW 13 15 7 8 - - 0.0
03/04:30pm 12.2 8.1 2.0 49 4.5 WSW 13 17 7 9 - - 0.0
03/04:20pm 12.6 8.5 2.3 49 4.6 WSW 13 19 7 10 - - 0.0
03/04:10pm 13.3 9.2 2.2 47 5.0 WSW 13 17 7 9 - - 0.0
03/04:00pm 13.6 9.1 2.2 46 5.2 SW 15 17 8 9 - - 0.0
03/03:50pm 13.8 10.1 2.4 46 5.2 WSW 11 15 6 8 - - 0.0
03/03:40pm 13.7 9.5 1.9 44 5.3 W 13 17 7 9 - - 0.0
03/03:30pm 13.8 9.3 2.1 45 5.3 WSW 15 19 8 10 - - 0.0
03/03:20pm 14.2 10.0 1.7 42 5.6 SW 13 17 7 9 - - 0.0
03/03:10pm 14.5 9.9 1.4 41 5.9 WSW 15 17 8 9 - - 0.0
03/03:00pm 14.8 10.7 2.0 42 5.8 WSW 13 15 7 8 - - 0.0
03/02:50pm 14.8 10.6 1.4 40 6.0 WSW 13 19 7 10 - - 0.0
03/02:40pm 15.1 11.1 0.8 37 6.4 WSW 11 15 6 8 - - 0.0
03/02:30pm 15.6 11.6 0.6 36 6.7 W 11 15 6 8 - - 0.0
03/02:20pm 15.7 11.7 0.3 35 6.8 W 11 15 6 8 - - 0.0
03/02:10pm 15.6 11.3 1.3 38 6.5 W 13 15 7 8 - - 0.0
03/02:00pm 15.9 12.0 1.4 37 6.6 W 11 13 6 7 - - 0.0
03/01:50pm 15.5 10.7 0.5 36 6.7 W 15 17 8 9 - - 0.0
03/01:40pm 15.8 11.5 0.7 36 6.7 W 13 17 7 9 - - 0.0
03/01:30pm 15.8 11.4 0.1 34 6.9 W 13 15 7 8 - - 0.0
03/01:20pm 15.7 10.9 -0.1 34 6.9 W 15 19 8 10 - - 0.0
03/01:10pm 16.0 12.2 1.8 38 6.5 W 11 15 6 8 - - 0.0
03/01:00pm 15.9 12.8 5.4 49 5.2 W 11 13 6 7 - - 0.0
03/12:50pm 15.8 12.5 4.3 46 5.5 W 11 15 6 8 - - 0.0
03/12:40pm 15.6 11.8 4.0 46 5.5 W 13 15 7 8 - - 0.0
03/12:30pm 16.1 13.0 3.4 42 6.0 WSW 9 13 5 7 - - 0.0
03/12:20pm 15.6 11.7 3.2 43 5.8 W 13 19 7 10 - - 0.0
03/12:10pm 15.5 11.6 3.2 43 5.8 W 13 17 7 9 - - 0.0
03/12:00pm 15.4 11.4 2.7 42 5.9 W 13 15 7 8 - - 0.0
03/11:50am 15.4 11.6 1.8 40 6.2 WSW 11 13 6 7 - - 0.0
03/11:40am 15.1 11.4 2.5 42 5.8 W 11 13 6 7 - - 0.0
03/11:30am 14.6 10.8 3.7 48 5.1 W 13 15 7 8 - - 0.0
03/11:20am 15.1 12.4 5.4 52 4.8 W 9 11 5 6 - - 0.0
03/11:10am 14.9 12.4 6.4 57 4.2 W 9 9 5 5 - - 0.0
03/11:00am 15.1 12.8 5.8 53 4.6 WNW 7 9 4 5 - - 0.0
03/10:50am 15.1 13.1 6.2 55 4.4 W 6 7 3 4 - - 0.0
03/10:40am 14.4 12.4 6.3 58 4.0 WSW 6 9 3 5 - - 0.0
03/10:30am 14.3 12.3 6.1 58 4.1 SW 6 6 3 3 - - 0.0
03/10:20am 13.9 11.9 6.2 59 3.8 SSW 6 7 3 4 - - 0.0
03/10:10am 13.3 11.1 5.5 59 3.8 SSW 6 6 3 3 - - 0.0
03/10:00am 12.6 10.4 5.2 60 3.5 S 6 9 3 5 - - 0.0
03/09:50am 11.9 9.0 4.4 60 3.5 S 9 9 5 5 - - 0.0
03/09:40am 11.6 8.6 4.3 61 3.4 S 9 13 5 7 - - 0.0
03/09:30am 11.2 7.8 4.0 61 3.3 S 11 13 6 7 - - 0.0
03/09:20am 11.0 7.2 3.8 61 3.3 S 13 15 7 8 - - 0.0
03/09:10am 10.5 7.1 3.9 63 3.0 S 11 15 6 8 - - 0.0
03/09:00am 10.2 6.8 3.8 64 2.9 S 11 13 6 7 - - 0.8
03/08:50am 10.1 6.7 3.8 65 2.9 S 11 13 6 7 - - 0.8
03/08:40am 9.7 5.9 3.8 66 2.7 S 13 17 7 9 - - 0.8
03/08:30am 9.6 5.4 4.0 68 2.5 S 15 17 8 9 - - 0.8
03/08:20am 9.4 5.6 3.7 67 2.6 S 13 15 7 8 - - 0.8
03/08:10am 9.3 5.5 3.7 68 2.5 S 13 15 7 8 - - 0.8
03/08:00am 9.2 5.0 3.8 69 2.4 SSE 15 15 8 8 - - 0.8
03/07:50am 9.1 5.4 4.2 71 2.2 SSE 13 15 7 8 - - 0.8
03/07:40am 9.1 5.0 4.3 72 2.2 S 15 17 8 9 - - 0.8
03/07:30am 9.0 4.9 4.3 72 2.1 S 15 17 8 9 - - 0.8
03/07:20am 8.9 4.8 4.6 74 2.0 S 15 17 8 9 - - 0.8
03/07:10am 8.8 4.4 4.6 75 1.9 S 17 17 9 9 - - 0.8
03/07:00am 8.7 4.7 5.1 78 1.7 S 15 19 8 10 - - 0.8
03/06:50am 8.7 4.8 5.5 80 1.5 S 15 17 8 9 - - 0.8
03/06:40am 8.6 4.7 5.5 81 1.4 SSE 15 17 8 9 - - 0.8
03/06:30am 8.8 5.0 5.7 81 1.5 S 15 17 8 9 - - 0.8
03/06:20am 8.9 5.6 6.5 85 1.1 SSE 13 15 7 8 - - 0.8
03/06:10am 9.1 6.0 7.2 88 0.9 S 13 15 7 8 - - 0.8
03/06:00am 9.6 7.0 7.8 88 0.9 SSE 11 13 6 7 - - 0.8
03/05:50am 10.0 7.9 8.1 88 0.9 SSE 9 11 5 6 - - 0.8
03/05:40am 10.6 8.1 8.0 84 1.3 SSE 11 13 6 7 - - 0.8
03/05:30am 10.4 8.7 8.4 87 1.0 SSE 7 9 4 5 - - 0.8
03/05:20am 10.3 8.8 8.3 87 1.0 SSE 6 7 3 4 - - 0.8
03/05:10am 10.2 8.7 8.4 89 0.9 SSE 6 7 3 4 - - 0.8
03/05:00am 10.2 9.2 8.8 91 0.7 ESE 4 6 2 3 - - 0.8
03/04:50am 10.3 9.3 8.7 90 0.8 ESE 4 6 2 3 - - 0.8
03/04:40am 10.5 9.8 8.6 88 1.0 ENE 2 4 1 2 - - 0.8
03/04:30am 10.6 9.7 7.8 83 1.4 N 2 4 1 2 - - 0.8
03/04:20am 10.9 10.1 8.1 83 1.4 SSW 2 4 1 2 - - 0.8
03/04:00am 11.0 9.2 8.0 82 1.5 WNW 7 7 4 4 - - 0.8
03/03:50am 11.2 9.4 8.1 81 1.6 WNW 7 9 4 5 - - 0.8
03/03:40am 11.2 9.4 8.1 81 1.6 W 7 9 4 5 - - 0.8
03/03:30am 11.3 9.2 8.2 81 1.6 W 9 9 5 5 - - 0.8
03/03:20am 11.5 9.4 8.2 80 1.7 W 9 9 5 5 - - 0.8

Other formats

Comma delimited format used in spreadsheet applications
http://www.bom.gov.au/fwo/IDN60801/IDN60801.99133.axf

JavaScript Object Notation format (JSON) in row-major order
http://www.bom.gov.au/fwo/IDN60801/IDN60801.99133.json

Data quality

Most of these data are generated automatically and are frequently updated. Quality checks on data are not normally performed. It is possible for incorrect values to appear. Refer to information at About Latest Weather Observations and please check the disclaimer before using these data.